Time,TemperatureF,DewpointF,PressureIn,WindDirection,WindDirectionDegrees,WindSpeedMPH,WindSpeedGustMPH,Humidity,HourlyPrecipIn,Conditions,Clouds,dailyrainin,SoftwareType,DateUTC
2013-06-29 00:00:00,69.9,60.5,29.73,West,265,0.0,0.0,72,0.00,,,0.68,Wunderground v.1.15,2013-06-29 05:00:00,
2013-06-29 00:05:00,69.4,60.0,29.73,West,265,0.0,0.0,72,0.00,,,0.00,Wunderground v.1.15,2013-06-29 05:05:00,
2013-06-29 00:10:00,68.9,59.9,29.73,West,265,0.0,0.0,73,0.00,,,0.00,Wunderground v.1.15,2013-06-29 05:10:00,
2013-06-29 00:20:00,68.4,60.5,29.73,West,265,0.0,0.0,76,0.00,,,0.00,Wunderground v.1.15,2013-06-29 05:20:00,
2013-06-29 00:30:00,67.8,60.7,29.73,West,265,0.0,0.0,78,0.00,,,0.00,Wunderground v.1.15,2013-06-29 05:30:00,
2013-06-29 00:40:00,67.6,60.5,29.73,West,265,0.0,0.0,78,0.00,,,0.00,Wunderground v.1.15,2013-06-29 05:40:00,
2013-06-29 00:50:00,67.4,61.0,29.73,West,265,0.0,0.0,80,0.00,,,0.00,Wunderground v.1.15,2013-06-29 05:50:00,
2013-06-29 01:00:00,66.9,60.5,29.73,West,265,0.0,0.0,80,0.00,,,0.00,Wunderground v.1.15,2013-06-29 06:00:00,
2013-06-29 01:10:00,66.6,60.6,29.73,West,265,0.0,0.0,81,0.00,,,0.00,Wunderground v.1.15,2013-06-29 06:10:00,
2013-06-29 01:20:00,66.4,60.4,29.73,West,265,0.0,0.0,81,0.00,,,0.00,Wunderground v.1.15,2013-06-29 06:20:00,
2013-06-29 01:30:00,66.0,60.0,29.73,West,265,0.0,0.0,81,0.00,,,0.00,Wunderground v.1.15,2013-06-29 06:30:00,
2013-06-29 01:40:00,65.5,59.9,29.73,West,265,0.0,0.0,82,0.00,,,0.00,Wunderground v.1.15,2013-06-29 06:40:00,
2013-06-29 01:50:00,65.2,59.9,29.73,West,265,0.0,0.0,83,0.00,,,0.00,Wunderground v.1.15,2013-06-29 06:50:00,
2013-06-29 02:00:00,65.0,60.0,29.73,West,265,0.0,0.0,84,0.00,,,0.00,Wunderground v.1.15,2013-06-29 07:00:00,
2013-06-29 02:05:00,65.0,60.0,29.73,West,265,0.0,0.0,84,0.00,,,0.00,Wunderground v.1.15,2013-06-29 07:05:00,
2013-06-29 02:10:00,64.8,59.9,29.73,West,265,0.0,0.0,84,0.00,,,0.00,Wunderground v.1.15,2013-06-29 07:10:00,
2013-06-29 02:20:00,64.5,59.9,29.73,West,265,0.0,0.0,85,0.00,,,0.00,Wunderground v.1.15,2013-06-29 07:20:00,
2013-06-29 02:30:00,64.3,60.0,29.73,West,265,0.0,0.0,86,0.00,,,0.00,Wunderground v.1.15,2013-06-29 07:30:00,
2013-06-29 02:35:00,64.3,60.3,29.73,West,265,0.0,0.0,87,0.00,,,0.00,Wunderground v.1.15,2013-06-29 07:35:00,
2013-06-29 02:45:00,64.0,60.1,29.73,West,265,0.0,0.0,87,0.00,,,0.00,Wunderground v.1.15,2013-06-29 07:45:00,
2013-06-29 02:50:00,63.9,60.0,29.73,West,265,0.0,0.0,87,0.00,,,0.00,Wunderground v.1.15,2013-06-29 07:50:00,
2013-06-29 03:00:00,63.7,60.1,29.73,West,265,0.0,0.0,88,0.00,,,0.00,Wunderground v.1.15,2013-06-29 08:00:00,
2013-06-29 03:05:00,63.5,59.9,29.73,West,265,0.0,0.0,88,0.00,,,0.00,Wunderground v.1.15,2013-06-29 08:05:00,
2013-06-29 03:10:00,63.4,59.8,29.73,West,265,0.0,0.0,88,0.00,,,0.00,Wunderground v.1.15,2013-06-29 08:10:00,
2013-06-29 03:15:00,63.2,59.6,29.73,West,265,0.0,0.0,88,0.00,,,0.00,Wunderground v.1.15,2013-06-29 08:15:00,
2013-06-29 03:25:00,62.9,59.6,29.73,West,265,0.0,0.0,89,0.00,,,0.00,Wunderground v.1.15,2013-06-29 08:25:00,
2013-06-29 03:30:00,62.7,59.4,29.73,West,265,0.0,0.0,89,0.00,,,0.00,Wunderground v.1.15,2013-06-29 08:30:00,
2013-06-29 03:40:00,62.7,59.4,29.72,West,265,0.0,0.0,89,0.00,,,0.00,Wunderground v.1.15,2013-06-29 08:40:00,
2013-06-29 03:50:00,62.6,59.6,29.72,West,265,0.0,0.0,90,0.00,,,0.00,Wunderground v.1.15,2013-06-29 08:50:00,
2013-06-29 04:00:00,62.1,59.1,29.72,West,265,0.0,0.0,90,0.00,,,0.00,Wunderground v.1.15,2013-06-29 09:00:00,
2013-06-29 04:05:00,62.1,59.1,29.73,West,265,0.0,0.0,90,0.00,,,0.00,Wunderground v.1.15,2013-06-29 09:05:00,
2013-06-29 04:10:00,62.0,59.0,29.73,West,265,0.0,0.0,90,0.00,,,0.00,Wunderground v.1.15,2013-06-29 09:10:00,
2013-06-29 04:20:00,61.8,58.8,29.73,West,265,0.0,0.0,90,0.00,,,0.00,Wunderground v.1.15,2013-06-29 09:20:00,
2013-06-29 04:30:00,61.6,58.6,29.73,West,265,0.0,0.0,90,0.00,,,0.00,Wunderground v.1.15,2013-06-29 09:30:00,
2013-06-29 04:40:00,61.3,58.3,29.73,West,265,0.0,0.0,90,0.00,,,0.00,Wunderground v.1.15,2013-06-29 09:40:00,
2013-06-29 04:50:00,61.0,58.0,29.73,West,265,0.0,0.0,90,0.00,,,0.00,Wunderground v.1.15,2013-06-29 09:50:00,
2013-06-29 05:00:00,61.0,58.0,29.73,West,265,0.0,0.0,90,0.00,,,0.00,Wunderground v.1.15,2013-06-29 10:00:00,
2013-06-29 05:05:00,61.0,58.0,29.73,West,265,0.0,0.0,90,0.00,,,0.00,Wunderground v.1.15,2013-06-29 10:05:00,
2013-06-29 05:10:00,61.0,58.0,29.73,West,265,0.0,0.0,90,0.00,,,0.00,Wunderground v.1.15,2013-06-29 10:10:00,
2013-06-29 05:20:00,60.9,57.9,29.73,West,265,0.0,0.0,90,0.00,,,0.00,Wunderground v.1.15,2013-06-29 10:20:00,
2013-06-29 05:30:00,60.7,57.7,29.73,West,265,0.0,0.0,90,0.00,,,0.00,Wunderground v.1.15,2013-06-29 10:30:00,
2013-06-29 05:40:00,60.7,57.7,29.73,West,265,0.0,0.0,90,0.00,,,0.00,Wunderground v.1.15,2013-06-29 10:40:00,
2013-06-29 05:45:00,60.7,57.7,29.73,West,265,0.0,0.0,90,0.00,,,0.00,Wunderground v.1.15,2013-06-29 10:45:00,
2013-06-29 05:55:00,60.7,57.4,29.73,West,265,0.0,0.0,89,0.00,,,0.00,Wunderground v.1.15,2013-06-29 10:55:00,
2013-06-29 06:05:00,61.0,57.7,29.73,West,265,0.0,0.0,89,0.00,,,0.00,Wunderground v.1.15,2013-06-29 11:05:00,
2013-06-29 06:15:00,61.0,57.4,29.73,West,265,0.0,0.0,88,0.00,,,0.00,Wunderground v.1.15,2013-06-29 11:15:00,
2013-06-29 06:20:00,61.2,57.6,29.74,West,265,0.0,0.0,88,0.00,,,0.00,Wunderground v.1.15,2013-06-29 11:20:00,
2013-06-29 06:30:00,61.8,57.9,29.74,West,265,0.0,0.0,87,0.00,,,0.00,Wunderground v.1.15,2013-06-29 11:30:00,
2013-06-29 06:40:00,62.7,57.8,29.74,West,265,0.0,0.0,84,0.00,,,0.00,Wunderground v.1.15,2013-06-29 11:40:00,
2013-06-29 06:50:00,64.0,57.7,29.73,West,265,0.0,0.0,80,0.00,,,0.00,Wunderground v.1.15,2013-06-29 11:50:00,
2013-06-29 07:00:00,65.2,57.8,29.73,NE,40,1.0,1.0,77,0.00,,,0.00,Wunderground v.1.15,2013-06-29 12:00:00,
2013-06-29 07:05:00,65.6,57.5,29.73,NW,319,1.0,1.0,75,0.00,,,0.00,Wunderground v.1.15,2013-06-29 12:05:00,
2013-06-29 07:10:00,66.1,57.9,29.73,NW,321,0.0,1.0,75,0.00,,,0.00,Wunderground v.1.15,2013-06-29 12:10:00,
2013-06-29 07:20:00,66.6,58.1,29.74,NW,313,0.0,0.0,74,0.00,,,0.00,Wunderground v.1.15,2013-06-29 12:20:00,
2013-06-29 07:30:00,67.4,58.4,29.74,North,360,0.0,0.0,73,0.00,,,0.00,Wunderground v.1.15,2013-06-29 12:30:00,
2013-06-29 07:40:00,68.8,58.6,29.74,WNW,296,0.0,5.0,70,0.00,,,0.00,Wunderground v.1.15,2013-06-29 12:40:00,
2013-06-29 07:50:00,70.1,58.6,29.73,WNW,292,1.0,4.0,67,0.00,,,0.00,Wunderground v.1.15,2013-06-29 12:50:00,
2013-06-29 08:00:00,70.9,58.5,29.73,North,351,1.0,1.0,65,0.00,,,0.00,Wunderground v.1.15,2013-06-29 13:00:00,
2013-06-29 08:05:00,71.3,58.9,29.74,NW,319,1.0,1.0,65,0.00,,,0.00,Wunderground v.1.15,2013-06-29 13:05:00,
2013-06-29 08:10:00,71.8,59.4,29.74,NNW,334,2.0,2.0,65,0.00,,,0.00,Wunderground v.1.15,2013-06-29 13:10:00,
2013-06-29 08:20:00,73.0,60.1,29.74,NNE,26,1.0,1.0,64,0.00,,,0.00,Wunderground v.1.15,2013-06-29 13:20:00,
2013-06-29 08:30:00,73.9,60.1,29.74,NW,323,1.0,1.0,62,0.00,,,0.00,Wunderground v.1.15,2013-06-29 13:30:00,
2013-06-29 08:40:00,74.4,60.1,29.74,NE,50,1.0,1.0,61,0.00,,,0.00,Wunderground v.1.15,2013-06-29 13:40:00,
2013-06-29 08:50:00,74.9,60.1,29.74,NNE,15,1.0,1.0,60,0.00,,,0.00,Wunderground v.1.15,2013-06-29 13:50:00,
2013-06-29 09:00:00,75.4,60.5,29.74,NE,38,2.0,2.0,60,0.00,,,0.00,Wunderground v.1.15,2013-06-29 14:00:00,
2013-06-29 09:05:00,75.8,60.9,29.74,NW,319,1.0,4.0,60,0.00,,,0.00,Wunderground v.1.15,2013-06-29 14:05:00,
2013-06-29 09:10:00,76.0,60.6,29.74,NE,37,2.0,4.0,59,0.00,,,0.00,Wunderground v.1.15,2013-06-29 14:10:00,
2013-06-29 09:20:00,76.3,59.9,29.74,NW,309,2.0,3.0,57,0.00,,,0.00,Wunderground v.1.15,2013-06-29 14:20:00,
2013-06-29 09:30:00,76.7,60.8,29.74,North,5,2.0,2.0,58,0.00,,,0.00,Wunderground v.1.15,2013-06-29 14:30:00,
2013-06-29 09:40:00,77.4,60.5,29.74,North,360,2.0,2.0,56,0.00,,,0.00,Wunderground v.1.15,2013-06-29 14:40:00,
2013-06-29 09:50:00,78.1,61.1,29.73,NNE,33,2.0,2.0,56,0.00,,,0.00,Wunderground v.1.15,2013-06-29 14:50:00,
2013-06-29 10:00:00,79.0,62.0,29.73,WNW,302,1.0,1.0,56,0.00,,,0.00,Wunderground v.1.15,2013-06-29 15:00:00,
2013-06-29 10:05:00,79.4,61.8,29.72,WSW,245,1.0,3.0,55,0.00,,,0.00,Wunderground v.1.15,2013-06-29 15:05:00,
2013-06-29 10:10:00,79.2,61.1,29.72,NW,309,2.0,2.0,54,0.00,,,0.00,Wunderground v.1.15,2013-06-29 15:10:00,
2013-06-29 10:20:00,79.4,61.8,29.72,NNW,344,1.0,4.0,55,0.00,,,0.00,Wunderground v.1.15,2013-06-29 15:20:00,
2013-06-29 10:30:00,79.8,61.1,29.72,NNW,347,2.0,2.0,53,0.00,,,0.00,Wunderground v.1.15,2013-06-29 15:30:00,
2013-06-29 10:40:00,79.8,60.6,29.72,West,281,2.0,3.0,52,0.00,,,0.00,Wunderground v.1.15,2013-06-29 15:40:00,
2013-06-29 10:45:00,80.1,61.4,29.72,NNW,331,2.0,7.0,53,0.00,,,0.00,Wunderground v.1.15,2013-06-29 15:45:00,
2013-06-29 10:55:00,80.3,58.2,29.72,NW,321,2.0,3.0,47,0.00,,,0.00,Wunderground v.1.15,2013-06-29 15:55:00,
2013-06-29 11:05:00,79.9,57.9,29.72,NW,308,4.0,12.0,47,0.00,,,0.00,Wunderground v.1.15,2013-06-29 16:05:00,
2013-06-29 11:10:00,80.1,59.2,29.72,NNW,327,3.0,4.0,49,0.00,,,0.00,Wunderground v.1.15,2013-06-29 16:10:00,
2013-06-29 11:20:00,80.7,59.2,29.73,NE,41,4.0,4.0,48,0.00,,,0.00,Wunderground v.1.15,2013-06-29 16:20:00,
2013-06-29 11:30:00,80.9,58.8,29.73,WNW,291,3.0,3.0,47,0.00,,,0.00,Wunderground v.1.15,2013-06-29 16:30:00,
2013-06-29 11:35:00,81.2,59.1,29.72,SSW,206,3.0,4.0,47,0.00,,,0.00,Wunderground v.1.15,2013-06-29 16:35:00,
2013-06-29 11:45:00,81.2,60.2,29.72,NNW,348,3.0,6.0,49,0.00,,,0.00,Wunderground v.1.15,2013-06-29 16:45:00,
2013-06-29 11:55:00,81.1,59.6,29.72,SSW,204,3.0,3.0,48,0.00,,,0.00,Wunderground v.1.15,2013-06-29 16:55:00,
2013-06-29 12:00:00,81.1,58.4,29.72,ENE,57,4.0,6.0,46,0.00,,,0.00,Wunderground v.1.15,2013-06-29 17:00:00,
2013-06-29 12:05:00,81.2,58.5,29.72,NNW,342,4.0,6.0,46,0.00,,,0.00,Wunderground v.1.15,2013-06-29 17:05:00,
2013-06-29 12:10:00,81.6,57.6,29.72,NE,42,3.0,4.0,44,0.00,,,0.00,Wunderground v.1.15,2013-06-29 17:10:00,
2013-06-29 12:20:00,82.6,57.8,29.72,NNW,345,3.0,3.0,43,0.00,,,0.00,Wunderground v.1.15,2013-06-29 17:20:00,
2013-06-29 12:30:00,82.2,57.5,29.72,SSE,158,3.0,3.0,43,0.00,,,0.00,Wunderground v.1.15,2013-06-29 17:30:00,
2013-06-29 12:40:00,81.4,55.4,29.72,NE,38,3.0,8.0,41,0.00,,,0.00,Wunderground v.1.15,2013-06-29 17:40:00,
2013-06-29 12:45:00,81.6,55.6,29.72,NW,320,4.0,8.0,41,0.00,,,0.00,Wunderground v.1.15,2013-06-29 17:45:00,
2013-06-29 12:50:00,82.0,56.6,29.72,NE,34,5.0,5.0,42,0.00,,,0.00,Wunderground v.1.15,2013-06-29 17:50:00,
2013-06-29 13:00:00,82.6,55.1,29.72,WSW,250,4.0,4.0,39,0.00,,,0.00,Wunderground v.1.15,2013-06-29 18:00:00,
2013-06-29 13:05:00,83.0,57.5,29.71,NE,56,3.0,4.0,42,0.00,,,0.00,Wunderground v.1.15,2013-06-29 18:05:00,
2013-06-29 13:15:00,83.4,56.5,29.71,NW,316,3.0,5.0,40,0.00,,,0.00,Wunderground v.1.15,2013-06-29 18:15:00,
2013-06-29 13:25:00,81.8,54.4,29.71,NNE,22,5.0,7.0,39,0.00,,,0.00,Wunderground v.1.15,2013-06-29 18:25:00,
2013-06-29 13:30:00,81.6,54.9,29.71,NNE,17,4.0,4.0,40,0.00,,,0.00,Wunderground v.1.15,2013-06-29 18:30:00,
2013-06-29 13:40:00,82.6,57.2,29.72,NNW,340,4.0,7.0,42,0.00,,,0.00,Wunderground v.1.15,2013-06-29 18:40:00,
2013-06-29 13:50:00,83.0,56.9,29.70,NE,45,4.0,6.0,41,0.00,,,0.00,Wunderground v.1.15,2013-06-29 18:50:00,
2013-06-29 13:55:00,82.8,56.7,29.70,NNE,14,3.0,9.0,41,0.00,,,0.00,Wunderground v.1.15,2013-06-29 18:55:00,
2013-06-29 14:05:00,83.4,53.6,29.70,WSW,251,4.0,5.0,36,0.00,,,0.00,Wunderground v.1.15,2013-06-29 19:05:00,
2013-06-29 14:15:00,83.0,56.2,29.70,NNW,338,3.0,10.0,40,0.00,,,0.00,Wunderground v.1.15,2013-06-29 19:15:00,
2013-06-29 14:25:00,82.8,56.0,29.70,WSW,240,4.0,9.0,40,0.00,,,0.00,Wunderground v.1.15,2013-06-29 19:25:00,
2013-06-29 14:35:00,83.2,54.2,29.70,WNW,298,3.0,4.0,37,0.00,,,0.00,Wunderground v.1.15,2013-06-29 19:35:00,
2013-06-29 14:40:00,83.0,55.5,29.70,NW,309,3.0,3.0,39,0.00,,,0.00,Wunderground v.1.15,2013-06-29 19:40:00,
2013-06-29 14:50:00,83.4,53.6,29.69,WNW,293,4.0,4.0,36,0.00,,,0.00,Wunderground v.1.15,2013-06-29 19:50:00,
2013-06-29 14:55:00,82.4,52.0,29.69,NW,325,4.0,7.0,35,0.00,,,0.00,Wunderground v.1.15,2013-06-29 19:55:00,
2013-06-29 15:05:00,82.4,55.7,29.69,NW,311,3.0,4.0,40,0.00,,,0.00,Wunderground v.1.15,2013-06-29 20:05:00,
2013-06-29 15:10:00,82.2,55.5,29.69,NW,309,2.0,2.0,40,0.00,,,0.00,Wunderground v.1.15,2013-06-29 20:10:00,
2013-06-29 15:20:00,82.8,53.9,29.69,NNE,32,3.0,4.0,37,0.00,,,0.00,Wunderground v.1.15,2013-06-29 20:20:00,
2013-06-29 15:30:00,83.0,54.0,29.69,NNW,328,3.0,9.0,37,0.00,,,0.00,Wunderground v.1.15,2013-06-29 20:30:00,
2013-06-29 15:35:00,82.8,51.6,29.69,NNE,22,5.0,9.0,34,0.00,,,0.00,Wunderground v.1.15,2013-06-29 20:35:00,
2013-06-29 15:45:00,81.6,52.8,29.69,NNE,32,2.0,11.0,37,0.00,,,0.00,Wunderground v.1.15,2013-06-29 20:45:00,
2013-06-29 15:55:00,82.6,53.7,29.69,NNE,15,4.0,4.0,37,0.00,,,0.00,Wunderground v.1.15,2013-06-29 20:55:00,
2013-06-29 16:00:00,83.4,53.6,29.69,SW,234,3.0,3.0,36,0.00,,,0.00,Wunderground v.1.15,2013-06-29 21:00:00,
2013-06-29 16:05:00,83.8,52.4,29.68,NNE,32,2.0,3.0,34,0.00,,,0.00,Wunderground v.1.15,2013-06-29 21:05:00,
2013-06-29 16:15:00,83.4,52.1,29.68,NE,56,3.0,6.0,34,0.00,,,0.00,Wunderground v.1.15,2013-06-29 21:15:00,
2013-06-29 16:25:00,83.0,56.2,29.68,NW,324,3.0,3.0,40,0.00,,,0.00,Wunderground v.1.15,2013-06-29 21:25:00,
2013-06-29 16:35:00,83.8,56.9,29.67,NNE,14,3.0,3.0,40,0.00,,,0.00,Wunderground v.1.15,2013-06-29 21:35:00,
2013-06-29 16:45:00,82.8,52.3,29.67,WSW,247,4.0,6.0,35,0.00,,,0.00,Wunderground v.1.15,2013-06-29 21:45:00,
2013-06-29 16:55:00,81.6,50.5,29.67,NNW,338,3.0,4.0,34,0.00,,,0.00,Wunderground v.1.15,2013-06-29 21:55:00,
2013-06-29 17:00:00,81.1,52.4,29.67,North,5,3.0,3.0,37,0.00,,,0.00,Wunderground v.1.15,2013-06-29 22:00:00,
2013-06-29 17:05:00,81.4,51.9,29.68,NE,56,3.0,3.0,36,0.00,,,0.00,Wunderground v.1.15,2013-06-29 22:05:00,
2013-06-29 17:10:00,81.2,52.4,29.68,NE,35,2.0,2.0,37,0.00,,,0.00,Wunderground v.1.15,2013-06-29 22:10:00,
2013-06-29 17:20:00,80.5,51.1,29.68,NNE,16,2.0,2.0,36,0.00,,,0.00,Wunderground v.1.15,2013-06-29 22:20:00,
2013-06-29 17:30:00,81.4,51.1,29.68,NNE,12,3.0,5.0,35,0.00,,,0.00,Wunderground v.1.15,2013-06-29 22:30:00,
2013-06-29 17:35:00,82.0,53.9,29.68,North,360,2.0,5.0,38,0.00,,,0.00,Wunderground v.1.15,2013-06-29 22:35:00,
2013-06-29 17:45:00,82.4,54.2,29.68,NE,53,2.0,2.0,38,0.00,,,0.00,Wunderground v.1.15,2013-06-29 22:45:00,
2013-06-29 17:55:00,82.6,52.9,29.67,SSE,167,1.0,3.0,36,0.00,,,0.00,Wunderground v.1.15,2013-06-29 22:55:00,
2013-06-29 18:05:00,82.2,52.6,29.67,SW,225,3.0,5.0,36,0.00,,,0.00,Wunderground v.1.15,2013-06-29 23:05:00,
2013-06-29 18:15:00,82.2,52.6,29.67,SW,234,2.0,3.0,36,0.00,,,0.00,Wunderground v.1.15,2013-06-29 23:15:00,
2013-06-29 18:20:00,82.2,51.8,29.67,NNE,18,2.0,2.0,35,0.00,,,0.00,Wunderground v.1.15,2013-06-29 23:20:00,
2013-06-29 18:30:00,82.0,51.6,29.67,WNW,290,1.0,2.0,35,0.00,,,0.00,Wunderground v.1.15,2013-06-29 23:30:00,
2013-06-29 18:40:00,81.4,51.9,29.66,WSW,247,3.0,3.0,36,0.00,,,0.00,Wunderground v.1.15,2013-06-29 23:40:00,
2013-06-29 18:45:00,81.2,52.4,29.66,NW,317,3.0,3.0,37,0.00,,,0.00,Wunderground v.1.15,2013-06-29 23:45:00,
2013-06-29 18:55:00,80.7,52.7,29.67,North,355,2.0,2.0,38,0.00,,,0.00,Wunderground v.1.15,2013-06-29 23:55:00,
2013-06-29 19:05:00,80.1,52.2,29.66,NNE,18,2.0,7.0,38,0.00,,,0.00,Wunderground v.1.15,2013-06-30 00:05:00,
2013-06-29 19:15:00,79.6,52.5,29.66,WSW,254,1.0,9.0,39,0.00,,,0.00,Wunderground v.1.15,2013-06-30 00:15:00,
2013-06-29 19:20:00,79.6,53.1,29.66,NNW,330,1.0,1.0,40,0.00,,,0.00,Wunderground v.1.15,2013-06-30 00:20:00,
2013-06-29 19:30:00,79.0,53.3,29.66,NNW,331,1.0,1.0,41,0.00,,,0.00,Wunderground v.1.15,2013-06-30 00:30:00,
2013-06-29 19:40:00,78.3,54.0,29.66,North,350,1.0,1.0,43,0.00,,,0.00,Wunderground v.1.15,2013-06-30 00:40:00,
2013-06-29 19:50:00,77.9,54.2,29.67,NNE,27,0.0,1.0,44,0.00,,,0.00,Wunderground v.1.15,2013-06-30 00:50:00,
2013-06-29 20:00:00,77.7,54.7,29.67,NNW,327,1.0,1.0,45,0.00,,,0.00,Wunderground v.1.15,2013-06-30 01:00:00,
2013-06-29 20:05:00,77.6,54.6,29.67,WNW,302,1.0,1.0,45,0.00,,,0.00,Wunderground v.1.15,2013-06-30 01:05:00,
2013-06-29 20:15:00,77.6,55.2,29.67,NE,55,1.0,3.0,46,0.00,,,0.00,Wunderground v.1.15,2013-06-30 01:15:00,
2013-06-29 20:25:00,77.4,55.0,29.67,NNE,32,2.0,6.0,46,0.00,,,0.00,Wunderground v.1.15,2013-06-30 01:25:00,
2013-06-29 20:30:00,77.4,55.0,29.67,North,355,3.0,6.0,46,0.00,,,0.00,Wunderground v.1.15,2013-06-30 01:30:00,
2013-06-29 20:40:00,77.0,55.2,29.67,NE,47,2.0,2.0,47,0.00,,,0.00,Wunderground v.1.15,2013-06-30 01:40:00,
2013-06-29 20:50:00,76.5,55.9,29.67,NNE,17,1.0,4.0,49,0.00,,,0.00,Wunderground v.1.15,2013-06-30 01:50:00,
2013-06-29 21:00:00,76.3,55.7,29.67,NNW,348,2.0,2.0,49,0.00,,,0.00,Wunderground v.1.15,2013-06-30 02:00:00,
2013-06-29 21:05:00,76.1,55.5,29.68,NE,37,3.0,3.0,49,0.00,,,0.00,Wunderground v.1.15,2013-06-30 02:05:00,
2013-06-29 21:15:00,75.8,55.8,29.68,NW,317,3.0,4.0,50,0.00,,,0.00,Wunderground v.1.15,2013-06-30 02:15:00,
2013-06-29 21:20:00,75.6,55.6,29.68,NNE,32,3.0,3.0,50,0.00,,,0.00,Wunderground v.1.15,2013-06-30 02:20:00,
2013-06-29 21:30:00,75.3,55.9,29.68,NNE,13,4.0,5.0,51,0.00,,,0.00,Wunderground v.1.15,2013-06-30 02:30:00,
2013-06-29 21:40:00,75.1,56.3,29.68,NW,317,3.0,4.0,52,0.00,,,0.00,Wunderground v.1.15,2013-06-30 02:40:00,
2013-06-29 21:45:00,74.9,56.1,29.68,NW,323,3.0,4.0,52,0.00,,,0.00,Wunderground v.1.15,2013-06-30 02:45:00,
2013-06-29 21:55:00,74.6,56.3,29.69,NE,36,2.0,3.0,53,0.00,,,0.00,Wunderground v.1.15,2013-06-30 02:55:00,
2013-06-29 22:05:00,74.4,56.7,29.69,NNE,25,2.0,3.0,54,0.00,,,0.00,Wunderground v.1.15,2013-06-30 03:05:00,
2013-06-29 22:15:00,74.0,56.8,29.69,NNE,33,2.0,2.0,55,0.00,,,0.00,Wunderground v.1.15,2013-06-30 03:15:00,
2013-06-29 22:25:00,73.7,56.5,29.69,NW,305,2.0,4.0,55,0.00,,,0.00,Wunderground v.1.15,2013-06-30 03:25:00,
2013-06-29 22:35:00,73.3,56.7,29.69,NNE,32,3.0,7.0,56,0.00,,,0.00,Wunderground v.1.15,2013-06-30 03:35:00,
2013-06-29 22:45:00,73.2,57.1,29.69,NW,317,2.0,3.0,57,0.00,,,0.00,Wunderground v.1.15,2013-06-30 03:45:00,
2013-06-29 22:50:00,73.0,57.3,29.70,NW,309,2.0,2.0,58,0.00,,,0.00,Wunderground v.1.15,2013-06-30 03:50:00,
2013-06-29 23:00:00,72.7,57.1,29.70,WNW,290,1.0,4.0,58,0.00,,,0.00,Wunderground v.1.15,2013-06-30 04:00:00,
2013-06-29 23:05:00,72.5,56.9,29.70,NE,40,1.0,4.0,58,0.00,,,0.00,Wunderground v.1.15,2013-06-30 04:05:00,
2013-06-29 23:10:00,72.3,57.2,29.70,SSE,163,1.0,1.0,59,0.00,,,0.00,Wunderground v.1.15,2013-06-30 04:10:00,
2013-06-29 23:15:00,72.1,57.0,29.70,North,5,2.0,4.0,59,0.00,,,0.00,Wunderground v.1.15,2013-06-30 04:15:00,
2013-06-29 23:20:00,71.8,57.2,29.70,NW,307,2.0,2.0,60,0.00,,,0.00,Wunderground v.1.15,2013-06-30 04:20:00,
2013-06-29 23:25:00,71.6,57.0,29.70,NW,318,1.0,2.0,60,0.00,,,0.00,Wunderground v.1.15,2013-06-30 04:25:00,
2013-06-29 23:30:00,71.3,57.2,29.70,NE,36,1.0,1.0,61,0.00,,,0.00,Wunderground v.1.15,2013-06-30 04:30:00,
2013-06-29 23:35:00,71.1,57.0,29.70,West,273,2.0,2.0,61,0.00,,,0.00,Wunderground v.1.15,2013-06-30 04:35:00,